Time;durP1;ratioP1;P1;durP2;ratioP2;P2;SDS_P1;SDS_P2;PMS_P1;PMS_P2;Temp;Humidity;BMP_temperature;BMP_pressure;BME280_temperature;BME280_humidity;BME280_pressure;Samples;Min_cycle;Max_cycle;Signal;HPM_P1;HPM_P2
2022/04/13 00:00:16;;;;;;;8.10;5.13;;;13.20;99.90;;;;;;5115559;28;20071;-74
2022/04/13 00:02:42;;;;;;;7.20;4.40;;;13.20;99.90;;;;;;5115127;28;20277;-75
2022/04/13 00:05:09;;;;;;;7.07;4.30;;;13.20;99.90;;;;;;5115155;28;20036;-75
2022/04/13 00:07:35;;;;;;;7.72;4.20;;;13.20;99.90;;;;;;5115127;28;20040;-75
2022/04/13 00:10:02;;;;;;;7.03;4.15;;;13.20;99.90;;;;;;5115125;28;20075;-76
2022/04/13 00:12:27;;;;;;;6.68;4.20;;;13.10;99.90;;;;;;5115103;28;20070;-76
2022/04/13 00:14:53;;;;;;;6.40;4.55;;;13.20;99.90;;;;;;5114963;28;20130;-76
2022/04/13 00:17:19;;;;;;;5.55;4.20;;;13.10;99.90;;;;;;5114942;28;20540;-76
2022/04/13 00:19:44;;;;;;;9.02;4.38;;;13.10;99.90;;;;;;5114826;28;20043;-75
2022/04/13 00:22:10;;;;;;;8.82;4.63;;;13.10;99.90;;;;;;5114856;28;20840;-76
2022/04/13 00:24:35;;;;;;;6.40;4.57;;;13.00;99.90;;;;;;5114819;28;20054;-76
2022/04/13 00:27:01;;;;;;;9.27;4.93;;;13.00;99.90;;;;;;5115067;28;20494;-74
2022/04/13 00:29:30;;;;;;;6.82;4.50;;;13.00;99.90;;;;;;5114767;28;20047;-76
2022/04/13 00:31:57;;;;;;;7.68;4.90;;;12.90;99.90;;;;;;5114628;28;20418;-75
2022/04/13 00:34:22;;;;;;;8.43;5.20;;;12.90;99.90;;;;;;5114265;28;20550;-75
2022/04/13 00:36:48;;;;;;;8.23;4.50;;;12.90;99.90;;;;;;5113663;28;20130;-76
2022/04/13 00:39:14;;;;;;;7.57;4.93;;;12.90;99.90;;;;;;5114562;28;20047;-75
2022/04/13 00:41:39;;;;;;;7.07;4.70;;;12.80;99.90;;;;;;5114549;28;20487;-76
2022/04/13 00:44:10;;;;;;;6.13;4.47;;;12.80;99.90;;;;;;5114780;28;20042;-75
2022/04/13 00:46:36;;;;;;;9.48;4.82;;;12.80;99.90;;;;;;5114282;28;20047;-76
2022/04/13 00:49:04;;;;;;;7.65;4.68;;;12.80;99.90;;;;;;5114424;28;20044;-76
2022/04/13 00:51:30;;;;;;;9.57;4.72;;;12.80;99.90;;;;;;5114477;28;20067;-75
2022/04/13 00:53:59;;;;;;;9.77;4.67;;;12.70;99.90;;;;;;5114212;28;20039;-75
2022/04/13 00:56:27;;;;;;;6.75;4.53;;;12.70;99.90;;;;;;5114368;28;20043;-75
2022/04/13 00:58:57;;;;;;;6.97;4.40;;;12.70;99.90;;;;;;5114237;28;20094;-75
2022/04/13 01:01:25;;;;;;;9.75;4.82;;;12.60;99.90;;;;;;5114247;28;20035;-76
2022/04/13 01:03:52;;;;;;;6.50;4.63;;;12.60;99.90;;;;;;5114091;28;20040;-76
2022/04/13 01:06:19;;;;;;;7.35;4.80;;;12.60;99.90;;;;;;5114110;28;20048;-75
2022/04/13 01:08:48;;;;;;;7.25;4.72;;;12.60;99.90;;;;;;5114161;28;20044;-74
2022/04/13 01:11:14;;;;;;;9.20;5.07;;;12.50;99.90;;;;;;5113684;28;20052;-76
2022/04/13 01:13:40;;;;;;;7.38;4.93;;;12.50;99.90;;;;;;5114104;28;20542;-74
2022/04/13 01:16:06;;;;;;;12.52;4.80;;;12.50;99.90;;;;;;5114161;28;20086;-76
2022/04/13 01:18:32;;;;;;;9.43;4.63;;;12.50;99.90;;;;;;5113998;28;20047;-76
2022/04/13 01:20:58;;;;;;;6.57;4.95;;;12.50;99.90;;;;;;5113071;28;20044;-75
2022/04/13 01:23:24;;;;;;;7.32;4.75;;;12.50;99.90;;;;;;5113958;28;20050;-76
2022/04/13 01:25:52;;;;;;;5.95;4.47;;;12.40;99.90;;;;;;5114267;28;20399;-75
2022/04/13 01:28:18;;;;;;;7.80;4.88;;;12.40;99.90;;;;;;5113961;28;20082;-75
2022/04/13 01:30:44;;;;;;;7.25;4.72;;;12.40;99.90;;;;;;5113890;28;20079;-75
2022/04/13 01:33:10;;;;;;;7.00;4.90;;;12.40;99.90;;;;;;5113820;28;20054;-73
2022/04/13 01:35:36;;;;;;;8.05;5.00;;;12.40;99.90;;;;;;5113898;28;20044;-75
2022/04/13 01:38:02;;;;;;;8.90;5.00;;;12.30;99.90;;;;;;5113617;28;20483;-75
2022/04/13 01:40:28;;;;;;;7.13;5.28;;;12.40;99.90;;;;;;5113951;28;20039;-75
2022/04/13 01:42:54;;;;;;;7.82;4.90;;;12.30;99.90;;;;;;5113864;28;20179;-75
2022/04/13 01:45:22;;;;;;;7.63;5.25;;;12.20;99.90;;;;;;5113792;28;20498;-76
2022/04/13 01:47:49;;;;;;;8.50;5.30;;;12.20;99.90;;;;;;5113632;28;20083;-75
2022/04/13 01:50:16;;;;;;;10.40;5.72;;;12.20;99.90;;;;;;5114118;28;20040;-74
2022/04/13 01:52:43;;;;;;;14.05;5.93;;;12.20;99.90;;;;;;5113747;28;20108;-75
2022/04/13 01:55:09;;;;;;;7.22;5.03;;;12.10;99.90;;;;;;5114008;28;20090;-75
2022/04/13 01:57:35;;;;;;;9.03;5.80;;;12.10;99.90;;;;;;5114984;28;20048;-75
2022/04/13 02:00:02;;;;;;;9.77;4.95;;;12.10;99.90;;;;;;5117668;28;20050;-74
2022/04/13 02:02:27;;;;;;;9.85;5.40;;;12.00;99.90;;;;;;5117486;28;20040;-74
2022/04/13 02:04:54;;;;;;;9.00;5.53;;;12.00;99.90;;;;;;5117495;28;20043;-73
2022/04/13 02:07:20;;;;;;;7.53;5.22;;;12.00;99.90;;;;;;5117407;28;20055;-75
2022/04/13 02:09:45;;;;;;;10.82;5.07;;;12.00;99.90;;;;;;5117391;28;20047;-75
2022/04/13 02:12:11;;;;;;;6.78;4.90;;;11.90;99.90;;;;;;5115959;28;20556;-75
2022/04/13 02:14:36;;;;;;;12.23;5.07;;;11.90;99.90;;;;;;5117244;28;20093;-76
2022/04/13 02:17:02;;;;;;;9.25;5.80;;;11.80;99.90;;;;;;5117135;28;20047;-75
2022/04/13 02:19:28;;;;;;;10.45;5.57;;;11.80;99.90;;;;;;5117597;28;20039;-75
2022/04/13 02:21:53;;;;;;;9.55;5.65;;;11.70;99.90;;;;;;5117163;28;20148;-75
2022/04/13 02:24:19;;;;;;;8.93;5.67;;;11.70;99.90;;;;;;5117101;28;20050;-77
2022/04/13 02:26:44;;;;;;;9.43;5.68;;;11.70;99.90;;;;;;5117252;28;20483;-76
2022/04/13 02:29:10;;;;;;;7.38;5.70;;;11.60;99.90;;;;;;5116086;28;20043;-74
2022/04/13 02:31:35;;;;;;;14.02;6.30;;;11.60;99.90;;;;;;5115754;28;20035;-75
2022/04/13 02:34:04;;;;;;;7.97;5.28;;;11.60;99.90;;;;;;5117093;28;20039;-76
2022/04/13 02:36:32;;;;;;;8.90;5.88;;;11.50;99.90;;;;;;5117267;28;20048;-75
2022/04/13 02:38:58;;;;;;;12.90;5.30;;;11.50;99.90;;;;;;5116771;28;20396;-75
2022/04/13 02:41:24;;;;;;;10.15;5.80;;;11.40;99.90;;;;;;5116899;28;20131;-75
2022/04/13 02:43:49;;;;;;;8.32;5.57;;;11.40;99.90;;;;;;5116852;28;20498;-77
2022/04/13 02:46:15;;;;;;;8.35;5.55;;;11.30;99.90;;;;;;5116772;28;20088;-78
2022/04/13 02:48:41;;;;;;;10.70;5.53;;;11.30;99.90;;;;;;5116745;28;20036;-76
2022/04/13 02:51:06;;;;;;;7.25;5.43;;;11.30;99.90;;;;;;5117150;28;20385;-73
2022/04/13 02:53:32;;;;;;;8.05;5.53;;;11.20;99.90;;;;;;5116569;28;20494;-74
2022/04/13 02:55:59;;;;;;;11.25;5.60;;;11.20;99.90;;;;;;5116605;27;20046;-74
2022/04/13 02:58:24;;;;;;;9.65;6.22;;;11.20;99.90;;;;;;5115411;28;20044;-76
2022/04/13 03:00:50;;;;;;;9.00;5.50;;;11.20;99.90;;;;;;5116399;28;20391;-75
2022/04/13 03:03:16;;;;;;;15.38;5.97;;;11.10;99.90;;;;;;5116366;28;20380;-77
2022/04/13 03:05:43;;;;;;;12.27;5.63;;;11.10;99.90;;;;;;5116420;28;20386;-77
2022/04/13 03:08:08;;;;;;;7.20;5.18;;;11.00;99.90;;;;;;5116489;28;20052;-74
2022/04/13 03:10:34;;;;;;;9.27;6.57;;;11.00;99.90;;;;;;5116195;28;20134;-75
2022/04/13 03:13:00;;;;;;;9.50;6.13;;;10.90;99.90;;;;;;5116286;28;20104;-76
2022/04/13 03:15:25;;;;;;;9.30;6.05;;;10.90;99.90;;;;;;5116161;28;20044;-75
2022/04/13 03:17:51;;;;;;;11.20;5.82;;;10.90;99.90;;;;;;5116124;28;20046;-75
2022/04/13 03:20:18;;;;;;;11.55;6.13;;;10.90;99.90;;;;;;5116110;27;20085;-76
2022/04/13 03:22:44;;;;;;;8.85;5.55;;;10.80;99.90;;;;;;5116057;28;20044;-76
2022/04/13 03:25:09;;;;;;;10.57;6.18;;;10.70;99.90;;;;;;5116080;28;20051;-76
2022/04/13 03:27:37;;;;;;;11.25;6.00;;;10.70;99.90;;;;;;5115914;28;20494;-75
2022/04/13 03:30:04;;;;;;;10.93;6.55;;;10.70;99.90;;;;;;5115595;28;20444;-76
2022/04/13 03:32:36;;;;;;;10.80;6.40;;;10.60;99.90;;;;;;5115729;28;20047;-76
2022/04/13 03:35:03;;;;;;;8.50;5.82;;;10.60;99.90;;;;;;5115822;27;20047;-76
2022/04/13 03:37:28;;;;;;;8.57;5.82;;;10.60;99.90;;;;;;5115732;28;20052;-76
2022/04/13 03:39:54;;;;;;;11.98;6.32;;;10.60;99.90;;;;;;5114718;28;20054;-75
2022/04/13 03:42:19;;;;;;;11.45;5.75;;;10.60;99.90;;;;;;5114462;28;20047;-75
2022/04/13 03:44:45;;;;;;;11.15;6.75;;;10.60;99.90;;;;;;5115518;28;20395;-75
2022/04/13 03:47:10;;;;;;;15.48;7.20;;;10.50;99.90;;;;;;5115498;28;20039;-76
2022/04/13 03:49:36;;;;;;;10.77;6.43;;;10.40;99.90;;;;;;5115481;28;20050;-74
2022/04/13 03:52:02;;;;;;;7.78;6.03;;;10.40;99.90;;;;;;5115323;28;20051;-75
2022/04/13 03:54:27;;;;;;;10.35;6.70;;;10.40;99.90;;;;;;5115764;28;20123;-75
2022/04/13 03:56:53;;;;;;;8.50;6.45;;;10.40;99.90;;;;;;5115297;28;20065;-74
2022/04/13 03:59:20;;;;;;;10.33;6.50;;;10.30;99.90;;;;;;5115213;28;20487;-75
2022/04/13 04:01:46;;;;;;;10.32;6.75;;;10.30;99.90;;;;;;5115252;28;20281;-76
2022/04/13 04:04:12;;;;;;;9.35;6.88;;;10.40;99.90;;;;;;5115111;28;20051;-75
2022/04/13 04:06:38;;;;;;;12.88;7.18;;;10.30;99.90;;;;;;5115207;28;20369;-75
2022/04/13 04:09:04;;;;;;;14.70;7.50;;;10.40;99.90;;;;;;5115076;28;20047;-74
2022/04/13 04:11:29;;;;;;;13.55;7.28;;;10.40;99.90;;;;;;5115023;28;20111;-74
2022/04/13 04:13:55;;;;;;;11.60;6.93;;;10.40;99.90;;;;;;5114900;28;20048;-76
2022/04/13 04:16:21;;;;;;;10.45;6.65;;;10.40;99.90;;;;;;5114991;28;20108;-75
2022/04/13 04:18:48;;;;;;;12.52;7.43;;;10.40;99.90;;;;;;5114903;28;20475;-73
2022/04/13 04:21:15;;;;;;;10.63;7.32;;;10.40;99.90;;;;;;5114385;28;20042;-74
2022/04/13 04:23:41;;;;;;;12.13;7.75;;;10.50;99.90;;;;;;5114790;28;20097;-75
2022/04/13 04:26:07;;;;;;;10.57;6.65;;;10.50;99.90;;;;;;5115001;28;20045;-75
2022/04/13 04:28:32;;;;;;;11.95;7.53;;;10.50;99.90;;;;;;5114739;28;20398;-75
2022/04/13 04:30:58;;;;;;;12.93;7.82;;;10.50;99.90;;;;;;5114580;28;20039;-74
2022/04/13 04:33:24;;;;;;;13.40;7.93;;;10.50;99.90;;;;;;5115300;28;20039;-75
2022/04/13 04:35:51;;;;;;;11.88;7.18;;;10.50;99.90;;;;;;5114942;28;20048;-75
2022/04/13 04:38:17;;;;;;;11.55;7.35;;;10.50;99.90;;;;;;5114652;28;20042;-76
2022/04/13 04:40:43;;;;;;;11.80;6.88;;;10.50;99.90;;;;;;5114482;28;20036;-75
2022/04/13 04:43:09;;;;;;;11.38;6.63;;;10.50;99.90;;;;;;5114488;28;20091;-74
2022/04/13 04:45:35;;;;;;;10.50;7.85;;;10.50;99.90;;;;;;5114225;28;20107;-75
2022/04/13 04:48:04;;;;;;;13.23;7.53;;;10.40;99.90;;;;;;5114589;28;20489;-76
2022/04/13 04:50:31;;;;;;;10.48;7.22;;;10.40;99.90;;;;;;5114514;28;20118;-75
2022/04/13 04:52:57;;;;;;;12.48;7.20;;;10.40;99.90;;;;;;5114471;28;20045;-77
2022/04/13 04:55:22;;;;;;;12.73;7.35;;;10.40;99.90;;;;;;5114344;28;20039;-75
2022/04/13 04:57:48;;;;;;;14.00;7.90;;;10.40;99.90;;;;;;5114430;28;20035;-77
2022/04/13 05:00:19;;;;;;;12.82;7.80;;;10.40;99.90;;;;;;5114312;28;20044;-74
2022/04/13 05:02:52;;;;;;;15.35;7.47;;;10.30;99.90;;;;;;5114270;28;20399;-77
2022/04/13 05:05:19;;;;;;;12.40;7.80;;;10.30;99.90;;;;;;5114273;28;20083;-76
2022/04/13 05:07:46;;;;;;;12.00;7.55;;;10.40;99.90;;;;;;5114220;28;20044;-76
2022/04/13 05:10:11;;;;;;;11.95;7.35;;;10.40;99.90;;;;;;5113955;28;20059;-76
2022/04/13 05:12:43;;;;;;;10.85;7.55;;;10.30;99.90;;;;;;5114203;28;20100;-77
2022/04/13 05:15:10;;;;;;;12.40;7.30;;;10.40;99.90;;;;;;5113910;28;20043;-76
2022/04/13 05:17:37;;;;;;;12.63;7.85;;;10.40;99.90;;;;;;5114164;28;20432;-77
2022/04/13 05:20:03;;;;;;;;;;;10.40;99.90;;;;;;5115260;28;20441;-77
2022/04/13 05:22:29;;;;;;;12.10;7.20;;;10.40;99.90;;;;;;5114124;28;19974;-76
2022/04/13 05:24:54;;;;;;;11.10;7.55;;;10.40;99.90;;;;;;5114031;28;20526;-77
2022/04/13 05:27:20;;;;;;;13.73;7.47;;;10.50;99.90;;;;;;5113908;28;20483;-74
2022/04/13 05:29:45;;;;;;;13.98;7.95;;;10.50;99.90;;;;;;5113985;28;20491;-75
2022/04/13 05:32:13;;;;;;;13.95;8.07;;;10.50;99.90;;;;;;5114509;28;20040;-75
2022/04/13 05:34:38;;;;;;;12.07;8.00;;;10.50;99.90;;;;;;5118079;28;20047;-77
2022/04/13 05:37:04;;;;;;;11.50;7.70;;;10.60;99.90;;;;;;5118056;28;20181;-76
2022/04/13 05:39:30;;;;;;;9.68;7.57;;;10.70;99.90;;;;;;5118111;28;20083;-78
2022/04/13 05:41:58;;;;;;;14.82;8.18;;;10.80;99.90;;;;;;5117829;27;20548;-78
2022/04/13 05:44:24;;;;;;;14.00;8.52;;;10.90;99.90;;;;;;5117097;28;20039;-77
2022/04/13 05:46:49;;;;;;;16.88;8.82;;;11.00;99.90;;;;;;5117715;28;20035;-79
2022/04/13 05:49:16;;;;;;;11.95;8.32;;;11.10;99.90;;;;;;5117822;28;20044;-78
2022/04/13 05:51:41;;;;;;;14.10;8.40;;;11.20;99.90;;;;;;5117591;27;20494;-74
2022/04/13 05:54:07;;;;;;;15.50;8.40;;;11.30;99.90;;;;;;5117741;28;20273;-77
2022/04/13 05:56:33;;;;;;;15.50;8.60;;;11.40;99.90;;;;;;5117750;28;20118;-77
2022/04/13 05:58:58;;;;;;;12.60;8.63;;;11.50;99.90;;;;;;5118057;28;20047;-75
2022/04/13 06:01:24;;;;;;;11.25;8.70;;;11.60;99.90;;;;;;5117809;28;20047;-75
2022/04/13 06:03:49;;;;;;;16.17;9.25;;;11.70;99.90;;;;;;5117535;28;20048;-75
2022/04/13 06:06:15;;;;;;;18.60;9.20;;;11.70;99.90;;;;;;5117480;28;20375;-74
2022/04/13 06:08:40;;;;;;;17.23;9.20;;;11.70;99.90;;;;;;5118068;28;20050;-74
2022/04/13 06:11:06;;;;;;;14.00;9.52;;;11.80;99.90;;;;;;5117298;28;20364;-74
2022/04/13 06:13:34;;;;;;;18.55;9.88;;;11.90;99.90;;;;;;5117445;28;20554;-74
2022/04/13 06:15:59;;;;;;;17.65;9.95;;;11.90;99.90;;;;;;5117272;28;20047;-77
2022/04/13 06:18:25;;;;;;;18.42;10.98;;;12.00;99.90;;;;;;5117188;28;20048;-74
2022/04/13 06:20:51;;;;;;;16.63;10.45;;;12.10;99.90;;;;;;5117123;28;20039;-76
2022/04/13 06:23:18;;;;;;;15.52;10.43;;;12.10;99.90;;;;;;5116922;28;20083;-75
2022/04/13 06:25:44;;;;;;;19.08;10.82;;;12.20;99.90;;;;;;5117045;28;20047;-77
2022/04/13 06:28:09;;;;;;;23.23;11.23;;;12.20;99.90;;;;;;5117512;27;20044;-74
2022/04/13 06:30:35;;;;;;;18.13;10.05;;;12.30;99.90;;;;;;5116894;28;20043;-74
2022/04/13 06:33:00;;;;;;;19.80;11.50;;;12.30;99.90;;;;;;5117314;28;20071;-75
2022/04/13 06:35:26;;;;;;;18.20;10.80;;;12.40;99.90;;;;;;5117149;28;20051;-74
2022/04/13 06:37:51;;;;;;;18.97;10.47;;;12.50;99.90;;;;;;5116857;28;20542;-75
2022/04/13 06:40:17;;;;;;;17.20;10.15;;;12.50;99.90;;;;;;5116796;28;20391;-74
2022/04/13 06:42:43;;;;;;;20.98;10.60;;;12.60;99.90;;;;;;5116343;28;20364;-74
2022/04/13 06:45:14;;;;;;;16.15;10.52;;;12.70;99.90;;;;;;5116744;28;20052;-75
2022/04/13 06:47:40;;;;;;;14.68;9.65;;;12.90;99.90;;;;;;5116734;28;20051;-76
2022/04/13 06:50:07;;;;;;;17.97;10.40;;;13.00;99.90;;;;;;5116640;28;20040;-75
2022/04/13 06:52:34;;;;;;;17.63;11.02;;;13.10;99.90;;;;;;5116533;28;20048;-80
2022/04/13 06:55:00;;;;;;;21.00;9.40;;;13.30;99.90;;;;;;5116567;28;20051;-81
2022/04/13 06:57:26;;;;;;;17.13;10.23;;;13.50;99.90;;;;;;5132903;27;20043;-81
2022/04/13 06:59:51;;;;;;;15.43;10.18;;;13.70;99.90;;;;;;5115544;28;20051;-80
2022/04/13 07:02:17;;;;;;;16.33;9.57;;;13.90;99.90;;;;;;5115902;28;20043;-81
2022/04/13 07:04:42;;;;;;;15.35;8.85;;;14.10;99.90;;;;;;5115726;28;20176;-81
2022/04/13 07:07:08;;;;;;;16.57;8.87;;;14.30;99.90;;;;;;5115141;28;20075;-81
2022/04/13 07:09:34;;;;;;;15.68;8.75;;;14.30;99.90;;;;;;5098333;28;20155;-81
2022/04/13 07:12:00;;;;;;;12.03;8.17;;;14.50;99.90;;;;;;5115063;28;20055;-80
2022/04/13 07:14:26;;;;;;;14.53;8.43;;;14.50;99.90;;;;;;5115955;28;20286;-81
2022/04/13 07:16:51;;;;;;;18.38;9.15;;;14.60;99.90;;;;;;5116419;28;20054;-82
2022/04/13 07:19:17;;;;;;;12.80;8.50;;;14.60;99.90;;;;;;5115111;28;20443;-81
2022/04/13 07:21:43;;;;;;;13.80;7.97;;;14.70;99.90;;;;;;5114950;28;20082;-80
2022/04/13 07:24:10;;;;;;;15.80;7.88;;;14.70;99.90;;;;;;5115991;28;20039;-81
2022/04/13 07:26:36;;;;;;;13.48;7.97;;;14.90;99.90;;;;;;5115994;28;20372;-80
2022/04/13 07:29:02;;;;;;;10.53;7.43;;;15.00;99.90;;;;;;5116016;28;20048;-79
2022/04/13 07:31:28;;;;;;;15.37;7.97;;;15.00;99.90;;;;;;5114832;28;20035;-77
2022/04/13 07:33:54;;;;;;;14.02;7.70;;;15.20;99.90;;;;;;5115841;28;20054;-78
2022/04/13 07:36:19;;;;;;;15.15;7.90;;;15.30;99.90;;;;;;5115889;28;20043;-79
2022/04/13 07:38:45;;;;;;;11.93;6.43;;;15.40;99.90;;;;;;5115842;28;20039;-76
2022/04/13 07:41:10;;;;;;;11.43;5.65;;;15.50;99.90;;;;;;5115345;28;20050;-76
2022/04/13 07:43:36;;;;;;;8.27;5.57;;;15.60;99.90;;;;;;5116004;28;20044;-76
2022/04/13 07:46:01;;;;;;;11.48;5.88;;;15.70;99.90;;;;;;5115583;28;20180;-77
2022/04/13 07:48:29;;;;;;;9.77;6.37;;;15.80;99.90;;;;;;5115254;28;20171;-78
2022/04/13 07:50:55;;;;;;;13.60;6.00;;;16.00;99.90;;;;;;5114668;28;20039;-77
2022/04/13 07:53:20;;;;;;;10.73;5.67;;;16.10;99.90;;;;;;5115582;28;20046;-78
2022/04/13 07:55:46;;;;;;;10.63;5.70;;;16.10;99.90;;;;;;5113608;28;20055;-77
2022/04/13 07:58:11;;;;;;;12.18;5.68;;;16.20;99.90;;;;;;5114349;28;20039;-76
2022/04/13 08:00:37;;;;;;;11.53;6.13;;;16.20;99.90;;;;;;5115303;28;20463;-75
2022/04/13 08:03:04;;;;;;;9.20;5.10;;;16.30;99.90;;;;;;5115263;28;20043;-78
2022/04/13 08:05:29;;;;;;;13.73;5.15;;;16.30;99.90;;;;;;5115240;28;20536;-80
2022/04/13 08:07:55;;;;;;;9.23;4.43;;;16.40;99.90;;;;;;5115336;28;20051;-81
2022/04/13 08:10:20;;;;;;;10.33;4.20;;;16.40;99.90;;;;;;5115019;28;20091;-80
2022/04/13 08:12:46;;;;;;;8.47;4.77;;;16.40;99.90;;;;;;5113860;28;20047;-75
2022/04/13 08:15:13;;;;;;;9.60;5.10;;;16.60;99.90;;;;;;5115048;28;20083;-74
2022/04/13 08:17:39;;;;;;;8.30;5.38;;;16.80;99.90;;;;;;5115233;28;20047;-76
2022/04/13 08:20:07;;;;;;;13.80;5.50;;;16.90;99.90;;;;;;5114921;28;20050;-76
2022/04/13 08:22:32;;;;;;;10.43;5.07;;;17.00;99.90;;;;;;5114904;28;20054;-76
2022/04/13 08:24:58;;;;;;;7.67;5.37;;;17.10;99.90;;;;;;5114729;28;20047;-76
2022/04/13 08:27:23;;;;;;;11.00;4.43;;;17.20;99.90;;;;;;5115295;28;20044;-78
2022/04/13 08:29:49;;;;;;;14.07;5.35;;;17.20;99.90;;;;;;5114403;28;20051;-79
2022/04/13 08:32:18;;;;;;;9.27;4.60;;;17.20;99.90;;;;;;5114624;28;20039;-77
2022/04/13 08:34:48;;;;;;;12.38;4.97;;;17.20;99.90;;;;;;5114387;28;20047;-76
2022/04/13 08:37:13;;;;;;;11.90;5.65;;;17.10;99.90;;;;;;5114765;28;20050;-75
2022/04/13 08:39:39;;;;;;;9.63;4.50;;;17.00;99.90;;;;;;5114468;28;20052;-79
2022/04/13 08:42:12;;;;;;;13.52;5.82;;;17.00;99.90;;;;;;5114529;28;20040;-75
2022/04/13 08:44:50;;;;;;;10.98;5.30;;;17.10;99.90;;;;;;5114588;28;20040;-76
2022/04/13 08:47:26;;;;;;;9.80;5.07;;;17.10;99.90;;;;;;5113368;28;20047;-75
2022/04/13 08:49:53;;;;;;;9.10;4.78;;;17.10;99.90;;;;;;5114520;28;20092;-77
2022/04/13 08:52:30;;;;;;;7.78;4.55;;;17.10;99.90;;;;;;5114811;28;20081;-75
2022/04/13 08:55:09;;;;;;;9.35;6.03;;;17.10;99.90;;;;;;5114468;28;20089;-75
2022/04/13 08:58:02;;;;;;;9.60;5.65;;;17.10;99.90;;;;;;5114717;28;20043;-77
2022/04/13 09:00:30;;;;;;;11.80;5.57;;;17.10;99.90;;;;;;5114039;28;20500;-76
2022/04/13 09:03:21;;;;;;;9.48;5.07;;;17.20;99.90;;;;;;5114273;28;20156;-77
2022/04/13 09:05:51;;;;;;;11.63;5.80;;;17.20;99.90;;;;;;5114165;28;20135;-78
2022/04/13 09:08:22;;;;;;;13.75;6.75;;;17.30;99.90;;;;;;5114096;28;20433;-79
2022/04/13 09:10:50;;;;;;;10.77;5.63;;;17.30;99.90;;;;;;5114323;28;20142;-80
2022/04/13 09:13:16;;;;;;;10.95;6.25;;;17.30;99.90;;;;;;5114538;28;20059;-78
2022/04/13 09:15:43;;;;;;;13.70;6.20;;;17.30;99.90;;;;;;5114573;28;20039;-78
2022/04/13 09:18:09;;;;;;;14.65;6.28;;;17.20;99.90;;;;;;5113065;28;20048;-80
2022/04/13 09:20:38;;;;;;;9.98;6.30;;;17.20;99.90;;;;;;5114409;28;20048;-78
2022/04/13 09:23:04;;;;;;;14.60;6.40;;;17.30;99.90;;;;;;5114549;28;20139;-76
2022/04/13 09:25:34;;;;;;;11.57;6.80;;;17.30;99.90;;;;;;5113932;28;20096;-76
2022/04/13 09:28:02;;;;;;;13.60;6.75;;;17.20;99.90;;;;;;5113950;28;20127;-78
2022/04/13 09:30:30;;;;;;;10.80;5.80;;;17.10;99.90;;;;;;5114298;28;20040;-79
2022/04/13 09:32:56;;;;;;;12.70;6.40;;;17.00;99.90;;;;;;5112711;28;20051;-78
2022/04/13 09:35:22;;;;;;;10.30;5.97;;;17.00;99.90;;;;;;5115991;28;20126;-79
2022/04/13 09:37:47;;;;;;;13.27;6.60;;;17.00;99.90;;;;;;5115679;28;20321;-77
2022/04/13 09:40:32;;;;;;;10.67;6.20;;;17.20;99.90;;;;;;5114280;28;20560;-79
2022/04/13 09:43:10;;;;;;;11.80;6.90;;;17.30;99.90;;;;;;5114593;28;20510;-78
2022/04/13 09:45:43;;;;;;;8.75;6.32;;;17.40;99.90;;;;;;5116019;28;20052;-78
2022/04/13 09:48:14;;;;;;;10.25;5.63;;;17.50;99.90;;;;;;5115658;28;20040;-80
2022/04/13 09:50:41;;;;;;;10.52;5.80;;;17.60;99.90;;;;;;5115410;28;20083;-80
2022/04/13 09:53:09;;;;;;;9.50;5.68;;;17.70;99.90;;;;;;5116577;28;20403;-78
2022/04/13 09:55:54;;;;;;;12.13;6.18;;;17.70;99.90;;;;;;5116115;28;20097;-79
2022/04/13 09:58:29;;;;;;;8.77;5.45;;;17.80;99.90;;;;;;5115450;28;20051;-78
2022/04/13 10:01:00;;;;;;;12.82;6.18;;;17.80;99.90;;;;;;5115730;28;20051;-78
2022/04/13 10:03:26;;;;;;;7.90;5.25;;;17.80;99.90;;;;;;5115479;28;20043;-81
2022/04/13 10:05:54;;;;;;;11.10;5.97;;;17.90;99.90;;;;;;5115400;28;20112;-78
2022/04/13 10:08:22;;;;;;;12.07;5.68;;;18.20;99.90;;;;;;5114361;28;20051;-80
2022/04/13 10:10:49;;;;;;;11.23;5.78;;;18.40;99.90;;;;;;5115286;28;20052;-78
2022/04/13 10:13:33;;;;;;;;;;;18.60;99.90;;;;;;5115343;28;20039;-79
2022/04/13 10:16:01;;;;;;;11.45;5.50;;;18.70;99.90;;;;;;5114777;28;19920;-77
2022/04/13 10:18:28;;;;;;;10.82;5.20;;;18.70;99.90;;;;;;5116790;28;20429;-81
2022/04/13 10:20:53;;;;;;;;;;;18.90;99.90;;;;;;5119493;28;20047;-80
2022/04/13 10:23:19;;;;;;;8.35;4.93;;;18.70;99.90;;;;;;5118148;28;20412;-78
2022/04/13 10:25:44;;;;;;;8.07;4.73;;;18.80;99.90;;;;;;5118214;28;20047;-79
2022/04/13 10:28:14;;;;;;;10.10;4.60;;;18.80;99.90;;;;;;5118811;28;20035;-77
2022/04/13 10:30:42;;;;;;;7.63;5.15;;;18.90;99.90;;;;;;5117795;28;20043;-78
2022/04/13 10:33:14;;;;;;;11.55;5.80;;;18.90;99.90;;;;;;5134341;27;20047;-78
2022/04/13 10:35:45;;;;;;;9.63;5.53;;;18.80;99.90;;;;;;5117686;28;20053;-78
2022/04/13 10:38:12;;;;;;;8.05;5.38;;;18.70;99.90;;;;;;5117762;27;20042;-77
2022/04/13 10:40:40;;;;;;;11.50;5.32;;;18.70;99.90;;;;;;5117793;28;20122;-79
2022/04/13 10:43:07;;;;;;;9.15;5.45;;;18.70;99.90;;;;;;5117576;27;20445;-78
2022/04/13 10:45:34;;;;;;;10.73;6.15;;;18.80;99.90;;;;;;5117464;28;20491;-80
2022/04/13 10:48:00;;;;;;;;;;;18.90;99.90;;;;;;5117785;28;20112;-81
2022/04/13 10:50:51;;;;;;;8.88;5.55;;;18.90;99.90;;;;;;5117417;28;19920;-79
2022/04/13 10:53:41;;;;;;;10.93;5.47;;;18.80;99.90;;;;;;5117883;28;20044;-80
2022/04/13 10:56:09;;;;;;;9.45;5.30;;;18.80;99.90;;;;;;5118212;28;20050;-77
2022/04/13 10:59:01;;;;;;;10.13;5.10;;;18.90;99.90;;;;;;5117416;28;20047;-80
2022/04/13 11:01:46;;;;;;;10.02;5.03;;;18.90;99.90;;;;;;5116034;28;20126;-80
2022/04/13 11:04:12;;;;;;;10.57;5.30;;;19.10;99.90;;;;;;5116909;28;20047;-78
2022/04/13 11:06:39;;;;;;;10.37;5.33;;;18.90;99.90;;;;;;5117575;28;20052;-77
2022/04/13 11:09:15;;;;;;;9.77;4.80;;;19.10;99.90;;;;;;5117173;27;20692;-79
2022/04/13 11:11:41;;;;;;;8.95;4.82;;;19.10;99.90;;;;;;5117559;28;20054;-79
2022/04/13 11:14:20;;;;;;;;;;;19.10;99.90;;;;;;5117770;28;20086;-81
2022/04/13 11:16:46;;;;;;;8.05;5.25;;;19.00;99.90;;;;;;5117284;27;19920;-81
2022/04/13 11:19:12;;;;;;;7.30;5.35;;;18.90;99.90;;;;;;5116741;28;20169;-78
2022/04/13 11:21:54;;;;;;;14.03;5.73;;;18.90;99.90;;;;;;5116746;28;20075;-78
2022/04/13 11:24:40;;;;;;;9.38;5.55;;;18.70;99.90;;;;;;5116733;28;20108;-78
2022/04/13 11:27:10;;;;;;;8.85;4.85;;;18.70;99.90;;;;;;5116467;28;20506;-79
2022/04/13 11:29:38;;;;;;;11.32;5.00;;;18.70;99.90;;;;;;5116797;28;20047;-79
2022/04/13 11:32:05;;;;;;;8.50;5.10;;;18.70;99.90;;;;;;5116933;28;20127;-80
2022/04/13 11:34:38;;;;;;;8.23;4.72;;;18.70;99.90;;;;;;5116770;27;20050;-78
2022/04/13 11:37:09;;;;;;;9.48;5.35;;;18.70;99.90;;;;;;5116739;28;20044;-79
2022/04/13 11:39:51;;;;;;;10.63;5.38;;;18.80;99.90;;;;;;5116193;28;20039;-78
2022/04/13 11:42:38;;;;;;;9.77;5.10;;;18.70;99.90;;;;;;5116387;28;20180;-80
2022/04/13 11:45:05;;;;;;;9.98;5.57;;;18.70;99.90;;;;;;5116682;28;20047;-78
2022/04/13 11:47:43;;;;;;;8.88;5.25;;;18.60;99.90;;;;;;5117622;28;20043;-80
2022/04/13 11:50:14;;;;;;;9.40;5.00;;;18.60;99.90;;;;;;5117263;28;20483;-79
2022/04/13 11:53:03;;;;;;;7.47;5.15;;;18.60;99.90;;;;;;5116718;28;20043;-79
2022/04/13 11:55:40;;;;;;;9.70;5.07;;;18.40;99.90;;;;;;5116862;28;20039;-78
2022/04/13 11:58:09;;;;;;;8.48;5.15;;;18.40;99.90;;;;;;5116145;28;20487;-78
2022/04/13 12:00:54;;;;;;;9.43;5.40;;;18.40;99.90;;;;;;5115331;28;20047;-80
2022/04/13 12:03:31;;;;;;;9.43;4.90;;;18.20;99.90;;;;;;5115614;28;20043;-77
2022/04/13 12:06:11;;;;;;;6.97;4.85;;;18.20;99.90;;;;;;5116373;28;20050;-78
2022/04/13 12:08:43;;;;;;;7.15;4.47;;;18.30;99.90;;;;;;5116221;27;20040;-81
2022/04/13 12:11:14;;;;;;;8.02;4.03;;;18.30;99.90;;;;;;5116258;28;20093;-77
2022/04/13 12:13:59;;;;;;;6.43;3.80;;;18.30;99.90;;;;;;5117106;28;20059;-79
2022/04/13 12:16:30;;;;;;;8.98;3.97;;;18.40;99.90;;;;;;5116451;28;20522;-79
2022/04/13 12:19:01;;;;;;;6.50;3.45;;;18.40;99.90;;;;;;5114697;28;20050;-80
2022/04/13 12:21:29;;;;;;;9.77;3.17;;;18.50;99.90;;;;;;5116671;28;20054;-79
2022/04/13 12:23:56;;;;;;;4.15;3.22;;;18.60;99.90;;;;;;5115658;28;20054;-78
2022/04/13 12:26:36;;;;;;;4.95;2.80;;;18.70;99.90;;;;;;5116001;28;20047;-77
2022/04/13 12:29:22;;;;;;;5.07;3.40;;;18.80;99.90;;;;;;5117030;28;20395;-78
2022/04/13 12:31:53;;;;;;;8.45;4.47;;;18.90;99.90;;;;;;5117125;28;20054;-78
2022/04/13 12:34:21;;;;;;;9.13;4.85;;;18.90;99.90;;;;;;5116067;28;20376;-79
2022/04/13 12:37:01;;;;;;;8.15;4.90;;;18.90;99.90;;;;;;5117130;28;20176;-78
2022/04/13 12:39:32;;;;;;;15.10;5.22;;;19.00;99.90;;;;;;5116153;28;20047;-80
2022/04/13 12:41:58;;;;;;;6.20;4.35;;;19.00;99.90;;;;;;5115896;28;20387;-80
2022/04/13 12:44:24;;;;;;;6.57;4.10;;;19.00;99.90;;;;;;5116073;28;20043;-78
2022/04/13 12:46:50;;;;;;;6.77;3.80;;;18.90;99.90;;;;;;5116857;28;20058;-79